createdAt,value
2018-05-02T00:01:39.707Z,101295.03
2018-05-02T00:04:08.507Z,101291.45
2018-05-02T00:06:36.812Z,101292.17
2018-05-02T00:09:06.009Z,101285.77
2018-05-02T00:11:35.687Z,101287.70
2018-05-02T00:14:04.023Z,101290.70
2018-05-02T00:16:32.338Z,101290.20
2018-05-02T00:19:00.727Z,101289.56
2018-05-02T00:21:29.049Z,101291.83
2018-05-02T00:23:57.603Z,101286.16
2018-05-02T00:26:26.326Z,101290.02
2018-05-02T00:28:54.686Z,101282.55
2018-05-02T00:31:23.755Z,101284.59
2018-05-02T00:33:52.118Z,101285.34
2018-05-02T00:36:33.407Z,101278.31
2018-05-02T00:39:01.790Z,101281.40
2018-05-02T00:41:30.354Z,101279.27
2018-05-02T00:43:59.499Z,101277.37
2018-05-02T00:46:29.115Z,101272.98
2018-05-02T00:49:17.141Z,101278.20
2018-05-02T00:51:46.279Z,101279.92
2018-05-02T00:54:14.579Z,101279.06
2018-05-02T00:56:42.876Z,101275.03
2018-05-02T00:59:11.269Z,101270.06
2018-05-02T01:01:40.400Z,101275.52
2018-05-02T01:04:08.798Z,101279.56
2018-05-02T01:06:37.312Z,101292.90
2018-05-02T01:09:05.645Z,101285.25
2018-05-02T01:11:33.949Z,101288.80
2018-05-02T01:14:02.302Z,101298.88
2018-05-02T01:16:30.610Z,101296.66
2018-05-02T01:18:58.908Z,101300.27
2018-05-02T01:21:27.252Z,101305.34
2018-05-02T01:23:55.567Z,101299.50
2018-05-02T01:26:23.931Z,101306.71
2018-05-02T01:28:52.735Z,101304.98
2018-05-02T01:31:21.063Z,101312.59
2018-05-02T01:33:49.396Z,101315.55
2018-05-02T01:36:17.756Z,101312.72
2018-05-02T01:38:46.103Z,101312.84
2018-05-02T01:41:14.438Z,101317.20
2018-05-02T01:43:42.788Z,101313.20
2018-05-02T01:46:11.112Z,101316.95
2018-05-02T01:51:39.479Z,101317.66
2018-05-02T01:54:07.841Z,101316.06
2018-05-02T01:56:36.162Z,101317.60
2018-05-02T01:59:04.501Z,101320.14
2018-05-02T02:01:32.873Z,101322.45
2018-05-02T02:04:01.227Z,101318.34
2018-05-02T02:06:29.554Z,101321.86
2018-05-02T02:08:58.158Z,101325.51
2018-05-02T02:11:26.476Z,101322.52
2018-05-02T02:13:54.801Z,101327.94
2018-05-02T02:16:23.136Z,101326.85
2018-05-02T02:18:51.464Z,101328.66
2018-05-02T02:21:19.815Z,101329.19
2018-05-02T02:23:48.927Z,101326.94
2018-05-02T02:26:17.256Z,101335.16
2018-05-02T02:28:46.323Z,101347.19
2018-05-02T02:31:14.964Z,101340.22
2018-05-02T02:33:43.271Z,101346.95
2018-05-02T02:36:11.591Z,101351.42
2018-05-02T02:38:39.924Z,101347.38
2018-05-02T02:41:08.232Z,101346.03
2018-05-02T02:43:36.560Z,101351.35
2018-05-02T02:46:04.901Z,101347.58
2018-05-02T02:48:33.996Z,101340.98
2018-05-02T02:51:03.100Z,101343.52
2018-05-02T02:53:31.571Z,101348.44
2018-05-02T02:56:00.659Z,101347.20
2018-05-02T02:58:29.751Z,101347.05
2018-05-02T03:00:58.877Z,101345.69
2018-05-02T03:03:27.199Z,101343.70
2018-05-02T03:05:55.512Z,101348.52
2018-05-02T03:08:24.621Z,101347.67
2018-05-02T03:10:52.951Z,101350.07
2018-05-02T03:13:21.260Z,101354.66
2018-05-02T03:15:50.614Z,101353.73
2018-05-02T03:18:18.921Z,101355.09
2018-05-02T03:20:47.265Z,101356.97
2018-05-02T03:23:15.622Z,101351.02
2018-05-02T03:25:43.931Z,101359.76
2018-05-02T03:28:12.248Z,101354.72
2018-05-02T03:30:40.622Z,101354.19
2018-05-02T03:33:08.929Z,101350.75
2018-05-02T03:35:37.994Z,101345.98
2018-05-02T03:38:06.374Z,101347.52
2018-05-02T03:40:34.684Z,101349.36
2018-05-02T03:43:02.996Z,101349.92
2018-05-02T03:45:31.354Z,101345.91
2018-05-02T03:47:59.660Z,101348.35
2018-05-02T03:50:27.960Z,101350.30
2018-05-02T03:52:56.340Z,101355.44
2018-05-02T03:55:25.397Z,101352.98
2018-05-02T03:57:53.687Z,101357.97
2018-05-02T04:00:39.975Z,101359.20
2018-05-02T04:03:25.783Z,101363.89
2018-05-02T04:06:10.840Z,101356.83
2018-05-02T04:08:39.232Z,101354.11
2018-05-02T04:11:07.506Z,101359.79
2018-05-02T04:13:35.870Z,101355.86
2018-05-02T04:16:04.210Z,101358.42
2018-05-02T04:18:32.526Z,101359.14
2018-05-02T04:21:01.363Z,101362.80
2018-05-02T04:23:30.460Z,101364.38
2018-05-02T04:25:58.863Z,101362.37
2018-05-02T04:28:27.130Z,101366.03
2018-05-02T04:30:56.248Z,101371.34
2018-05-02T04:33:24.563Z,101369.31
2018-05-02T04:35:52.948Z,101364.88
2018-05-02T04:38:21.283Z,101372.36
2018-05-02T04:40:49.626Z,101369.77
2018-05-02T04:43:18.449Z,101373.86
2018-05-02T04:45:46.780Z,101380.66
2018-05-02T04:48:15.099Z,101385.14
2018-05-02T04:53:18.040Z,101392.56
2018-05-02T04:55:46.370Z,101396.55
2018-05-02T04:58:15.484Z,101398.38
2018-05-02T05:00:43.881Z,101397.11
2018-05-02T05:03:12.568Z,101398.47
2018-05-02T05:05:40.864Z,101403.61
2018-05-02T05:08:09.357Z,101397.25
2018-05-02T05:10:37.707Z,101397.53
2018-05-02T05:13:06.012Z,101399.02
2018-05-02T05:15:34.342Z,101391.98
2018-05-02T05:18:02.726Z,101397.62
2018-05-02T05:20:31.055Z,101388.31
2018-05-02T05:22:59.364Z,101398.90
2018-05-02T05:25:28.179Z,101394.56
2018-05-02T05:27:56.511Z,101395.42
2018-05-02T05:30:24.888Z,101388.53
2018-05-02T05:32:53.235Z,101387.61
2018-05-02T05:35:21.587Z,101387.70
2018-05-02T05:37:49.924Z,101390.14
2018-05-02T05:40:18.361Z,101398.62
2018-05-02T05:42:46.680Z,101395.94
2018-05-02T05:45:15.045Z,101403.71
2018-05-02T05:47:43.477Z,101411.34
2018-05-02T05:50:11.778Z,101399.59
2018-05-02T05:52:40.155Z,101403.95
2018-05-02T05:55:08.495Z,101406.36
2018-05-02T05:57:37.571Z,101405.97
2018-05-02T06:00:05.897Z,101408.01
2018-05-02T06:02:34.237Z,101412.11
2018-05-02T06:05:02.640Z,101407.48
2018-05-02T06:07:30.925Z,101408.17
2018-05-02T06:10:00.298Z,101403.53
2018-05-02T06:12:28.653Z,101405.97
2018-05-02T06:14:57.462Z,101415.09
2018-05-02T06:17:26.636Z,101414.78
2018-05-02T06:19:54.971Z,101410.37
2018-05-02T06:22:24.039Z,101406.02
2018-05-02T06:24:52.381Z,101398.91
2018-05-02T06:27:20.720Z,101404.05
2018-05-02T06:29:49.034Z,101398.23
2018-05-02T06:32:17.931Z,101397.72
2018-05-02T06:34:46.277Z,101396.34
2018-05-02T06:37:14.618Z,101398.14
2018-05-02T06:39:42.959Z,101394.55
2018-05-02T06:42:11.301Z,101390.31
2018-05-02T06:44:40.388Z,101395.87
2018-05-02T06:47:09.493Z,101382.59
2018-05-02T06:49:38.608Z,101388.14
2018-05-02T06:52:06.924Z,101388.25
2018-05-02T06:54:36.466Z,101387.08
2018-05-02T06:57:04.804Z,101399.39
2018-05-02T06:59:33.211Z,101397.11
2018-05-02T07:02:01.647Z,101390.03
2018-05-02T07:04:29.995Z,101387.23
2018-05-02T07:06:58.425Z,101380.00
2018-05-02T07:09:26.831Z,101388.48
2018-05-02T07:11:55.180Z,101387.23
2018-05-02T07:14:23.500Z,101380.45
2018-05-02T07:16:52.480Z,101390.27
2018-05-02T07:19:20.848Z,101385.87
2018-05-02T07:21:49.217Z,101383.78
2018-05-02T07:24:17.596Z,101385.98
2018-05-02T07:26:46.030Z,101384.31
2018-05-02T07:29:15.170Z,101384.79
2018-05-02T07:31:43.596Z,101381.43
2018-05-02T07:34:12.725Z,101388.20
2018-05-02T07:36:41.078Z,101382.89
2018-05-02T07:39:09.609Z,101382.17
2018-05-02T07:41:37.975Z,101380.31
2018-05-02T07:44:06.301Z,101372.66
2018-05-02T07:46:34.657Z,101383.70
2018-05-02T07:49:02.994Z,101378.52
2018-05-02T07:51:31.328Z,101383.89
2018-05-02T07:53:59.699Z,101380.69
2018-05-02T07:56:28.866Z,101379.53
2018-05-02T07:58:57.132Z,101383.50
2018-05-02T08:01:25.884Z,101380.05
2018-05-02T08:03:54.219Z,101378.55
2018-05-02T08:06:22.552Z,101377.32
2018-05-02T08:08:51.713Z,101374.86
2018-05-02T08:11:20.078Z,101372.77
2018-05-02T08:13:48.386Z,101369.63
2018-05-02T08:16:16.747Z,101370.13
2018-05-02T08:18:45.115Z,101378.56
2018-05-02T08:21:13.421Z,101377.09
2018-05-02T08:23:42.275Z,101369.08
2018-05-02T08:26:10.593Z,101368.19
2018-05-02T08:28:38.938Z,101374.38
2018-05-02T08:31:07.296Z,101376.45
2018-05-02T08:33:35.802Z,101366.78
2018-05-02T08:36:04.129Z,101370.68
2018-05-02T08:38:32.477Z,101366.36
2018-05-02T08:41:00.799Z,101365.45
2018-05-02T08:43:29.144Z,101360.55
2018-05-02T08:45:57.614Z,101358.58
2018-05-02T08:48:25.935Z,101369.15
2018-05-02T08:50:55.016Z,101368.44
2018-05-02T08:53:23.429Z,101371.20
2018-05-02T08:55:51.782Z,101359.45
2018-05-02T08:58:20.873Z,101360.02
2018-05-02T09:00:49.210Z,101349.23
2018-05-02T09:03:17.529Z,101353.92
2018-05-02T09:05:45.889Z,101359.77
2018-05-02T09:08:14.759Z,101355.17
2018-05-02T09:10:43.146Z,101361.60
2018-05-02T09:13:11.487Z,101359.41
2018-05-02T09:15:39.871Z,101374.38
2018-05-02T09:18:09.046Z,101360.27
2018-05-02T09:20:37.381Z,101366.72
2018-05-02T09:23:05.747Z,101365.03
2018-05-02T09:25:34.102Z,101365.54
2018-05-02T09:28:02.501Z,101367.06
2018-05-02T09:30:31.239Z,101354.52
2018-05-02T09:32:59.570Z,101349.67
2018-05-02T09:35:27.902Z,101355.30
2018-05-02T09:37:57.027Z,101347.97
2018-05-02T09:40:25.386Z,101341.37
2018-05-02T09:42:54.492Z,101333.58
2018-05-02T09:45:23.600Z,101330.55
2018-05-02T09:47:51.995Z,101329.54
2018-05-02T09:50:20.431Z,101328.53
2018-05-02T09:52:49.055Z,101319.95
2018-05-02T09:55:17.393Z,101332.90
2018-05-02T09:57:45.716Z,101327.44
2018-05-02T10:00:14.089Z,101313.17
2018-05-02T10:02:42.394Z,101309.28
2018-05-02T10:05:10.702Z,101304.26
2018-05-02T10:07:39.120Z,101294.67
2018-05-02T10:10:07.464Z,101297.00
2018-05-02T10:12:36.567Z,101291.37
2018-05-02T10:15:06.204Z,101324.17
2018-05-02T10:17:34.550Z,101299.96
2018-05-02T10:20:02.927Z,101299.05
2018-05-02T10:22:31.269Z,101274.36
2018-05-02T10:24:59.684Z,101275.22
2018-05-02T10:27:28.039Z,101288.24
2018-05-02T10:29:56.770Z,101293.19
2018-05-02T10:32:25.134Z,101279.81
2018-05-02T10:34:53.499Z,101295.97
2018-05-02T10:37:21.983Z,101271.81
2018-05-02T10:39:50.326Z,101272.83
2018-05-02T10:42:18.658Z,101267.70
2018-05-02T10:44:47.006Z,101270.68
2018-05-02T10:47:15.336Z,101264.96
2018-05-02T10:49:44.455Z,101258.59
2018-05-02T10:52:12.838Z,101250.28
2018-05-02T10:54:41.162Z,101256.27
2018-05-02T10:57:09.511Z,101238.76
2018-05-02T10:59:39.062Z,101255.01
2018-05-02T11:02:07.413Z,101242.88
2018-05-02T11:04:35.795Z,101240.11
2018-05-02T11:07:04.181Z,101240.31
2018-05-02T11:09:33.386Z,101247.55
2018-05-02T11:12:01.760Z,101233.80
2018-05-02T11:14:30.168Z,101224.11
2018-05-02T11:16:59.250Z,101238.81
2018-05-02T11:19:27.572Z,101231.65
2018-05-02T11:21:57.416Z,101226.21
2018-05-02T11:24:25.696Z,101241.82
2018-05-02T11:26:54.038Z,101227.34
2018-05-02T11:29:22.417Z,101216.45
2018-05-02T11:31:50.734Z,101214.03
2018-05-02T11:34:19.083Z,101205.01
2018-05-02T11:36:47.427Z,101207.39
2018-05-02T11:39:15.797Z,101207.66
2018-05-02T11:41:44.912Z,101213.06
2018-05-02T11:44:13.743Z,101200.55
2018-05-02T11:46:42.121Z,101197.45
2018-05-02T11:49:10.468Z,101199.37
2018-05-02T11:51:38.827Z,101199.54
2018-05-02T11:54:08.169Z,101206.09
2018-05-02T11:56:36.571Z,101199.37
2018-05-02T11:59:04.997Z,101211.42
2018-05-02T12:01:33.376Z,101201.10
2018-05-02T12:04:01.736Z,101183.58
2018-05-02T12:06:30.205Z,101191.41
2018-05-02T12:08:58.567Z,101188.53
2018-05-02T12:11:26.956Z,101186.37
2018-05-02T12:13:55.403Z,101189.94
2018-05-02T12:16:23.759Z,101194.77
2018-05-02T12:18:52.856Z,101195.77
2018-05-02T12:21:21.991Z,101188.63
2018-05-02T12:23:50.330Z,101186.72
2018-05-02T12:26:18.676Z,101190.15
2018-05-02T12:28:47.572Z,101175.82
2018-05-02T12:31:15.885Z,101174.42
2018-05-02T12:33:44.257Z,101181.38
2018-05-02T12:36:13.072Z,101176.53
2018-05-02T12:38:41.478Z,101184.66
2018-05-02T12:41:09.928Z,101171.92
2018-05-02T12:43:38.230Z,101176.02
2018-05-02T12:46:06.568Z,101165.98
2018-05-02T12:48:34.918Z,101174.20
2018-05-02T12:51:03.508Z,101181.08
2018-05-02T12:53:31.840Z,101164.09
2018-05-02T12:56:00.275Z,101161.18
2018-05-02T12:58:28.635Z,101162.06
2018-05-02T13:00:57.003Z,101152.80
2018-05-02T13:03:25.319Z,101146.69
2018-05-02T13:05:54.473Z,101149.73
2018-05-02T13:08:22.799Z,101140.67
2018-05-02T13:10:51.934Z,101145.95
2018-05-02T13:13:20.787Z,101134.37
2018-05-02T13:15:49.873Z,101132.17
2018-05-02T13:18:18.220Z,101132.49
2018-05-02T13:20:47.340Z,101128.13
2018-05-02T13:23:15.671Z,101136.48
2018-05-02T13:25:44.069Z,101124.32
2018-05-02T13:28:12.428Z,101109.34
2018-05-02T13:30:40.796Z,101110.41
2018-05-02T13:33:09.144Z,101099.79
2018-05-02T13:35:38.562Z,101118.61
2018-05-02T13:38:06.953Z,101110.84
2018-05-02T13:40:35.319Z,101110.70
2018-05-02T13:43:03.687Z,101102.94
2018-05-02T13:45:32.848Z,101098.52
2018-05-02T13:48:01.201Z,101102.95
2018-05-02T13:50:29.540Z,101097.17
2018-05-02T13:52:58.650Z,101091.97
2018-05-02T13:55:27.899Z,101099.38
2018-05-02T13:57:56.325Z,101093.61
2018-05-02T14:00:25.509Z,101087.20
2018-05-02T14:02:54.596Z,101079.59
2018-05-02T14:05:22.972Z,101085.06
2018-05-02T14:07:51.288Z,101087.31
2018-05-02T14:10:19.617Z,101094.80
2018-05-02T14:12:48.744Z,101074.34
2018-05-02T14:15:17.867Z,101072.38
2018-05-02T14:17:46.186Z,101082.72
2018-05-02T14:20:15.281Z,101076.45
2018-05-02T14:22:43.597Z,101062.44
2018-05-02T14:25:12.689Z,101063.45
2018-05-02T14:27:41.099Z,101056.93
2018-05-02T14:30:09.411Z,101046.97
2018-05-02T14:32:37.778Z,101045.16
2018-05-02T14:35:06.194Z,101050.31
2018-05-02T14:37:34.529Z,101048.29
2018-05-02T14:40:02.885Z,101035.59
2018-05-02T14:42:32.111Z,101034.77
2018-05-02T14:45:00.461Z,101041.10
2018-05-02T14:47:29.623Z,101036.73
2018-05-02T14:49:57.988Z,101034.46
2018-05-02T14:52:26.384Z,101039.19
2018-05-02T14:54:55.520Z,101030.84
2018-05-02T14:57:23.886Z,101039.94
2018-05-02T14:59:52.984Z,101027.90
2018-05-02T15:02:22.152Z,101031.80
2018-05-02T15:04:50.834Z,101023.89
2018-05-02T15:07:19.225Z,101022.83
2018-05-02T15:09:47.560Z,101017.23
2018-05-02T15:12:16.001Z,101017.86
2018-05-02T15:14:45.134Z,101002.46
2018-05-02T15:17:13.471Z,101018.40
2018-05-02T15:19:41.832Z,101015.23
2018-05-02T15:22:10.191Z,101011.11
2018-05-02T15:24:38.551Z,101009.42
2018-05-02T15:27:07.048Z,101011.43
2018-05-02T15:29:35.372Z,101007.95
2018-05-02T15:32:04.478Z,101004.36
2018-05-02T15:34:33.681Z,101011.33
2018-05-02T15:37:02.010Z,101003.09
2018-05-02T15:39:30.409Z,100997.15
2018-05-02T15:41:58.800Z,100998.30
2018-05-02T15:44:27.129Z,100990.30
2018-05-02T15:46:55.469Z,100992.02
2018-05-02T15:49:24.488Z,100988.11
2018-05-02T15:51:52.774Z,100994.86
2018-05-02T15:54:21.138Z,101003.20
2018-05-02T15:56:49.504Z,101002.16
2018-05-02T15:59:18.639Z,100999.89
2018-05-02T16:01:46.981Z,100995.28
2018-05-02T16:04:16.147Z,101001.84
2018-05-02T16:06:44.504Z,100992.33
2018-05-02T16:09:12.846Z,100996.42
2018-05-02T16:11:41.716Z,100998.88
2018-05-02T16:14:10.028Z,100986.02
2018-05-02T16:16:38.398Z,100992.87
2018-05-02T16:19:06.795Z,100990.06
2018-05-02T16:21:35.132Z,100988.41
2018-05-02T16:24:03.479Z,100983.34
2018-05-02T16:26:31.814Z,100977.78
2018-05-02T16:29:00.941Z,100980.34
2018-05-02T16:31:29.260Z,100973.98
2018-05-02T16:33:57.920Z,100995.42
2018-05-02T16:36:26.259Z,100980.19
2018-05-02T16:38:54.596Z,100976.77
2018-05-02T16:41:22.935Z,100982.17
2018-05-02T16:43:51.260Z,100987.62
2018-05-02T16:46:19.680Z,100989.64
2018-05-02T16:48:48.055Z,100987.89
2018-05-02T16:51:16.406Z,100987.72
2018-05-02T16:53:44.715Z,100983.44
2018-05-02T16:56:13.574Z,100982.69
2018-05-02T16:58:41.937Z,100987.77
2018-05-02T17:01:10.311Z,100986.52
2018-05-02T17:03:38.666Z,100986.56
2018-05-02T17:06:07.748Z,100989.66
2018-05-02T17:08:36.082Z,100992.20
2018-05-02T17:11:05.249Z,100986.51
2018-05-02T17:13:33.615Z,100992.20
2018-05-02T17:16:02.121Z,100985.17
2018-05-02T17:18:30.759Z,100993.73
2018-05-02T17:20:59.206Z,100994.97
2018-05-02T17:23:27.539Z,100999.21
2018-05-02T17:25:55.890Z,100998.97
2018-05-02T17:28:24.984Z,101006.71
2018-05-02T17:30:54.070Z,101005.43
2018-05-02T17:33:23.193Z,100993.13
2018-05-02T17:35:51.592Z,100986.86
2018-05-02T17:38:19.934Z,100982.81
2018-05-02T17:40:49.354Z,100983.53
2018-05-02T17:43:17.677Z,100985.31
2018-05-02T17:45:46.023Z,100983.94
2018-05-02T17:48:14.403Z,100981.08
2018-05-02T17:50:43.509Z,100992.02
2018-05-02T17:53:11.836Z,100993.34
2018-05-02T17:55:40.960Z,100985.11
2018-05-02T17:58:09.301Z,100991.88
2018-05-02T18:00:37.688Z,100985.11
2018-05-02T18:03:06.964Z,100988.69
2018-05-02T18:05:35.329Z,100993.15
2018-05-02T18:08:03.676Z,100994.02
2018-05-02T18:10:32.116Z,100991.09
2018-05-02T18:13:00.423Z,100995.94
2018-05-02T18:15:29.525Z,100985.87
2018-05-02T18:17:57.890Z,100986.08
2018-05-02T18:20:26.991Z,100990.12
2018-05-02T18:22:56.128Z,100997.52
2018-05-02T18:25:24.854Z,100986.25
2018-05-02T18:27:53.244Z,100995.85
2018-05-02T18:30:22.508Z,100991.06
2018-05-02T18:32:50.893Z,100997.28
2018-05-02T18:35:19.217Z,100999.79
2018-05-02T18:37:47.516Z,101000.86
2018-05-02T18:40:15.855Z,100995.46
2018-05-02T18:42:44.204Z,100998.84
2018-05-02T18:45:12.536Z,101001.89
2018-05-02T18:47:41.223Z,100998.11
2018-05-02T18:50:09.570Z,100998.19
2018-05-02T18:52:37.873Z,100997.03
2018-05-02T18:55:07.016Z,100998.22
2018-05-02T18:57:35.330Z,100998.53
2018-05-02T19:00:03.771Z,100998.86
2018-05-02T19:02:32.106Z,101001.30
2018-05-02T19:05:01.175Z,101000.86
2018-05-02T19:07:29.475Z,101006.48
2018-05-02T19:09:58.151Z,100993.41
2018-05-02T19:12:26.486Z,100996.45
2018-05-02T19:14:54.804Z,100994.74
2018-05-02T19:17:23.147Z,100996.49
2018-05-02T19:19:57.120Z,100990.53
2018-05-02T19:22:26.305Z,100987.21
2018-05-02T19:25:00.358Z,100989.47
2018-05-02T19:27:29.298Z,100990.51
2018-05-02T19:29:58.393Z,100988.89
2018-05-02T19:32:32.169Z,100985.70
2018-05-02T19:35:00.538Z,100994.55
2018-05-02T19:37:28.871Z,100992.25
2018-05-02T19:40:02.844Z,100988.53
2018-05-02T19:42:36.588Z,100996.16
2018-05-02T19:45:05.476Z,100998.89
2018-05-02T19:47:33.755Z,101003.36
2018-05-02T19:50:02.917Z,101003.18
2018-05-02T19:52:36.865Z,100992.58
2018-05-02T19:55:05.328Z,100993.39
2018-05-02T19:57:33.690Z,100992.97
2018-05-02T20:00:02.120Z,100987.42
2018-05-02T20:02:36.754Z,100988.02
2018-05-02T20:05:05.468Z,100989.10
2018-05-02T20:07:39.328Z,100983.03
2018-05-02T20:10:13.259Z,100987.23
2018-05-02T20:12:47.045Z,100987.16
2018-05-02T20:15:16.195Z,100983.13
2018-05-02T20:17:44.534Z,100984.25
2018-05-02T20:20:13.661Z,100981.81
2018-05-02T20:22:42.337Z,100984.02
2018-05-02T20:25:10.693Z,100978.00
2018-05-02T20:27:39.058Z,100985.08
2018-05-02T20:30:07.431Z,100984.81
2018-05-02T20:32:35.797Z,100988.50
2018-05-02T20:35:04.143Z,100989.44
2018-05-02T20:37:32.513Z,100988.97
2018-05-02T20:40:00.827Z,100988.07
2018-05-02T20:42:29.198Z,100987.28
2018-05-02T20:44:58.036Z,100987.67
2018-05-02T20:47:26.376Z,100981.55
2018-05-02T20:49:54.733Z,100977.27
2018-05-02T20:52:23.103Z,100983.20
2018-05-02T20:54:51.496Z,100977.91
2018-05-02T20:57:19.764Z,100978.79
2018-05-02T20:59:48.148Z,100980.02
2018-05-02T21:02:16.516Z,100982.97
2018-05-02T21:04:44.886Z,100981.55
2018-05-02T21:07:13.615Z,100974.95
2018-05-02T21:09:42.016Z,100977.30
2018-05-02T21:12:10.331Z,100971.69
2018-05-02T21:14:38.707Z,100964.13
2018-05-02T21:17:07.031Z,100963.97
2018-05-02T21:19:35.561Z,100962.91
2018-05-02T21:22:03.887Z,100960.62
2018-05-02T21:24:33.032Z,100958.47
2018-05-02T21:27:01.421Z,100957.86
2018-05-02T21:29:30.345Z,100963.55
2018-05-02T21:31:58.853Z,100965.31
2018-05-02T21:34:28.030Z,100965.18
2018-05-02T21:36:56.471Z,100968.33
2018-05-02T21:39:24.783Z,100966.91
2018-05-02T21:41:53.159Z,100963.24
2018-05-02T21:44:21.542Z,100967.41
2018-05-02T21:46:49.856Z,100975.77
2018-05-02T21:49:18.221Z,100972.46
2018-05-02T21:51:47.097Z,100976.22
2018-05-02T21:54:15.419Z,100970.17
2018-05-02T21:56:44.529Z,100967.91
2018-05-02T21:59:13.673Z,100964.70
2018-05-02T22:01:42.006Z,100966.21
2018-05-02T22:04:10.351Z,100964.42
2018-05-02T22:06:38.682Z,100962.82
2018-05-02T22:09:07.066Z,100959.61
2018-05-02T22:11:36.200Z,100960.23
2018-05-02T22:14:04.639Z,100956.67
2018-05-02T22:16:32.958Z,100961.45
2018-05-02T22:19:01.311Z,100960.65
2018-05-02T22:21:29.712Z,100959.03
2018-05-02T22:23:58.061Z,100960.39
2018-05-02T22:26:26.412Z,100960.43
2018-05-02T22:28:54.790Z,100962.47
2018-05-02T22:31:23.884Z,100966.27
2018-05-02T22:33:52.961Z,100964.45
2018-05-02T22:36:21.495Z,100965.75
2018-05-02T22:38:49.802Z,100963.36
2018-05-02T22:41:18.117Z,100958.93
2018-05-02T22:43:46.499Z,100966.83
2018-05-02T22:46:14.838Z,100963.77
2018-05-02T22:48:43.265Z,100959.22
2018-05-02T22:51:11.600Z,100961.25
2018-05-02T22:53:39.915Z,100952.53
2018-05-02T22:56:08.261Z,100957.21
2018-05-02T22:58:37.267Z,100951.80
2018-05-02T23:01:05.610Z,100946.68
2018-05-02T23:03:33.995Z,100942.92
2018-05-02T23:06:02.407Z,100938.81
2018-05-02T23:08:31.531Z,100941.15
2018-05-02T23:10:59.861Z,100941.66
2018-05-02T23:13:28.238Z,100942.05
2018-05-02T23:15:56.537Z,100937.14
2018-05-02T23:18:24.970Z,100937.36
2018-05-02T23:20:53.672Z,100935.64
2018-05-02T23:23:21.992Z,100940.22
2018-05-02T23:25:50.303Z,100932.72
2018-05-02T23:28:18.668Z,100933.30
2018-05-02T23:30:47.744Z,100923.80
2018-05-02T23:33:16.048Z,100923.48
2018-05-02T23:35:44.427Z,100921.45
2018-05-02T23:38:12.758Z,100913.81
2018-05-02T23:40:41.109Z,100916.64
2018-05-02T23:43:09.534Z,100914.48
2018-05-02T23:45:37.866Z,100912.86
2018-05-02T23:48:06.226Z,100922.70
2018-05-02T23:50:34.623Z,100922.20
2018-05-02T23:53:02.978Z,100922.12
2018-05-02T23:55:31.311Z,100917.27
2018-05-02T23:57:59.755Z,100915.13
